Time;durP1;ratioP1;P1;durP2;ratioP2;P2;SDS_P1;SDS_P2;PMS_P1;PMS_P2;Temp;Humidity;BMP_temperature;BMP_pressure;BME280_temperature;BME280_humidity;BME280_pressure;Samples;Min_cycle;Max_cycle;Signal;HPM_P1;HPM_P2
2022/11/06 00:01:13;;;;;;;3.67;2.42;;;1.20;99.90;;;;;;4801707;29;20046;-79
2022/11/06 00:03:41;;;;;;;2.80;2.60;;;1.20;99.90;;;;;;4801348;29;20090;-79
2022/11/06 00:08:54;;;;;;;3.55;2.38;;;1.10;99.90;;;;;;4784120;29;20051;-79
2022/11/06 00:11:22;;;;;;;2.47;2.03;;;1.10;99.90;;;;;;4803404;29;20046;-79
2022/11/06 00:13:51;;;;;;;4.65;2.72;;;1.10;99.90;;;;;;4802060;29;20495;-78
2022/11/06 00:16:20;;;;;;;2.55;2.33;;;1.10;99.90;;;;;;4801986;29;20055;-79
2022/11/06 00:18:48;;;;;;;2.78;2.47;;;1.00;99.90;;;;;;4795595;29;20146;-79
2022/11/06 00:21:18;;;;;;;11.20;2.90;;;1.10;99.90;;;;;;4803366;29;20046;-79
2022/11/06 00:23:47;;;;;;;3.03;2.72;;;1.10;99.90;;;;;;4802077;29;20106;-79
2022/11/06 00:26:16;;;;;;;2.70;2.50;;;1.10;99.90;;;;;;4802329;29;20107;-79
2022/11/06 00:28:44;;;;;;;3.35;2.67;;;1.10;99.90;;;;;;4802063;29;20055;-79
2022/11/06 00:31:13;;;;;;;4.18;3.28;;;1.10;99.90;;;;;;4800686;29;20050;-80
2022/11/06 00:33:42;;;;;;;3.80;2.88;;;1.10;99.90;;;;;;4800635;29;20062;-80
2022/11/06 00:36:11;;;;;;;3.85;2.60;;;1.10;99.90;;;;;;4802392;29;20055;-80
2022/11/06 00:38:39;;;;;;;2.65;2.38;;;1.10;99.90;;;;;;4801234;29;20139;-79
2022/11/06 00:41:07;;;;;;;3.28;2.20;;;1.10;99.90;;;;;;4803032;29;20055;-79
2022/11/06 00:43:35;;;;;;;2.10;1.90;;;1.20;99.90;;;;;;4802485;29;20153;-79
2022/11/06 00:46:02;;;;;;;4.95;2.58;;;1.10;99.90;;;;;;4799349;29;20071;-79
2022/11/06 00:48:30;;;;;;;4.00;2.70;;;1.10;99.90;;;;;;4801964;29;20086;-79
2022/11/06 00:51:03;;;;;;;3.50;2.88;;;1.10;99.90;;;;;;4801992;29;20047;-79
2022/11/06 00:53:30;;;;;;;2.63;2.42;;;1.10;99.90;;;;;;4800941;29;20078;-80
2022/11/06 00:56:05;;;;;;;3.20;2.53;;;1.10;99.90;;;;;;4803953;29;20063;-80
2022/11/06 00:58:32;;;;;;;2.28;2.08;;;1.10;99.90;;;;;;4799943;29;20145;-79
2022/11/06 01:01:06;;;;;;;2.50;2.15;;;1.00;99.90;;;;;;4800793;29;20157;-80
2022/11/06 01:03:34;;;;;;;3.15;2.85;;;1.00;99.90;;;;;;4784245;29;20059;-79
2022/11/06 01:06:07;;;;;;;2.47;2.28;;;1.00;99.90;;;;;;4802265;29;20538;-80
2022/11/06 01:08:35;;;;;;;2.80;2.53;;;1.00;99.90;;;;;;4802956;29;20431;-80
2022/11/06 01:11:08;;;;;;;2.53;2.17;;;1.00;99.90;;;;;;4801754;29;20145;-79
2022/11/06 01:13:37;;;;;;;3.08;2.75;;;1.00;99.90;;;;;;4799557;29;20051;-79
2022/11/06 01:16:06;;;;;;;6.82;3.72;;;1.00;99.90;;;;;;4803466;29;20054;-79
2022/11/06 01:18:34;;;;;;;3.25;2.60;;;1.00;99.90;;;;;;4802834;29;20059;-79
2022/11/06 01:21:06;;;;;;;4.65;2.47;;;1.00;99.90;;;;;;4803009;29;20055;-78
2022/11/06 01:23:33;;;;;;;2.40;2.20;;;1.00;99.90;;;;;;4801859;29;20059;-78
2022/11/06 01:26:02;;;;;;;2.53;2.33;;;1.00;99.90;;;;;;4800103;29;20097;-78
2022/11/06 01:28:29;;;;;;;3.03;2.22;;;1.00;99.90;;;;;;4816527;29;20082;-79
2022/11/06 01:30:57;;;;;;;3.25;2.95;;;1.00;99.90;;;;;;4804531;29;20062;-78
2022/11/06 01:33:24;;;;;;;3.83;2.67;;;1.00;99.90;;;;;;4804657;29;20137;-78
2022/11/06 01:35:52;;;;;;;3.17;2.88;;;1.00;99.90;;;;;;4806341;29;20069;-79
2022/11/06 01:38:21;;;;;;;2.53;2.13;;;1.00;99.90;;;;;;4819552;29;20564;-78
2022/11/06 01:40:48;;;;;;;3.05;2.70;;;1.00;99.90;;;;;;4804300;29;20055;-78
2022/11/06 01:43:18;;;;;;;2.90;2.67;;;1.00;99.90;;;;;;4803803;29;20483;-80
2022/11/06 01:45:49;;;;;;;2.80;2.33;;;1.00;99.90;;;;;;4804172;29;20149;-79
2022/11/06 01:48:20;;;;;;;4.38;3.30;;;1.00;99.90;;;;;;4804265;29;20060;-81
2022/11/06 01:50:52;;;;;;;4.63;3.33;;;1.00;99.90;;;;;;4788382;29;20059;-80
2022/11/06 01:53:22;;;;;;;3.90;3.05;;;1.00;99.90;;;;;;4817634;29;20047;-79
2022/11/06 01:55:53;;;;;;;4.63;3.25;;;1.00;99.90;;;;;;4819127;29;20520;-80
2022/11/06 01:58:24;;;;;;;4.25;3.30;;;1.00;99.90;;;;;;4802303;29;20143;-79
2022/11/06 02:00:55;;;;;;;5.22;3.20;;;1.00;99.90;;;;;;4801661;29;20086;-79
2022/11/06 02:03:22;;;;;;;3.33;2.65;;;1.00;99.90;;;;;;4818039;29;20066;-79
2022/11/06 02:05:50;;;;;;;3.55;3.25;;;1.00;99.90;;;;;;4805663;29;20123;-79
2022/11/06 02:08:21;;;;;;;4.20;3.17;;;1.00;99.90;;;;;;4789071;29;20074;-80
2022/11/06 02:10:49;;;;;;;3.90;3.50;;;0.90;99.90;;;;;;4804147;29;20129;-79
2022/11/06 02:13:24;;;;;;;6.43;3.45;;;0.90;99.90;;;;;;4804973;29;20053;-79
2022/11/06 02:15:55;;;;;;;8.88;4.40;;;0.90;99.90;;;;;;4803801;29;20051;-80
2022/11/06 02:18:42;;;;;;;8.07;3.88;;;0.90;99.90;;;;;;4805114;29;20141;-80
2022/11/06 02:21:35;;;;;;;4.95;4.22;;;1.00;99.90;;;;;;4804649;29;20153;-80
2022/11/06 02:24:50;;;;;;;5.63;4.47;;;1.00;99.90;;;;;;4806367;29;20110;-80
2022/11/06 02:27:22;;;;;;;7.35;4.65;;;1.00;99.90;;;;;;4717402;30;20080;-79
2022/11/06 02:29:55;;;;;;;7.20;4.22;;;1.00;99.90;;;;;;4728415;30;20125;-80
2022/11/06 02:32:27;;;;;;;5.93;3.95;;;1.00;99.90;;;;;;4761339;29;20165;-80
2022/11/06 02:34:56;;;;;;;5.13;4.63;;;1.00;99.90;;;;;;4801119;29;20458;-79
2022/11/06 02:37:29;;;;;;;4.72;4.13;;;1.00;99.90;;;;;;4788492;29;20051;-79
2022/11/06 02:40:02;;;;;;;6.15;4.68;;;1.00;99.90;;;;;;4803911;29;20059;-80
2022/11/06 02:42:37;;;;;;;5.82;4.35;;;1.00;99.90;;;;;;4801189;29;20517;-80
2022/11/06 02:45:07;;;;;;;6.30;4.60;;;1.10;99.90;;;;;;4803612;29;20050;-79
2022/11/06 02:47:35;;;;;;;5.88;4.15;;;1.10;99.90;;;;;;4805976;29;20059;-80
2022/11/06 02:50:06;;;;;;;4.85;4.45;;;1.10;99.90;;;;;;4789034;29;20047;-80
2022/11/06 02:52:37;;;;;;;5.47;4.40;;;1.10;99.90;;;;;;4804651;29;20062;-80
2022/11/06 02:55:09;;;;;;;11.70;4.38;;;1.10;99.90;;;;;;4804998;29;20051;-78
2022/11/06 02:57:41;;;;;;;7.68;4.97;;;1.10;99.90;;;;;;4803034;29;20591;-78
2022/11/06 03:00:12;;;;;;;5.25;4.75;;;1.10;99.90;;;;;;4814273;29;20047;-77
2022/11/06 03:02:44;;;;;;;7.20;4.78;;;1.10;99.90;;;;;;4788507;29;20145;-78
2022/11/06 03:05:17;;;;;;;9.00;4.43;;;1.10;99.90;;;;;;4818522;29;20153;-78
2022/11/06 03:07:49;;;;;;;6.03;4.78;;;1.10;99.90;;;;;;4804860;29;20493;-80
2022/11/06 03:10:17;;;;;;;10.85;5.40;;;1.10;99.90;;;;;;4804517;29;20482;-78
2022/11/06 03:12:55;;;;;;;5.75;4.60;;;1.00;99.90;;;;;;4804696;29;20046;-79
2022/11/06 03:15:31;;;;;;;6.57;5.07;;;1.00;99.90;;;;;;4819202;29;20051;-78
2022/11/06 03:18:08;;;;;;;7.57;5.35;;;1.10;99.90;;;;;;4804375;29;20143;-78
2022/11/06 03:20:40;;;;;;;6.18;4.78;;;1.10;99.90;;;;;;4801857;29;20212;-78
2022/11/06 03:23:13;;;;;;;7.07;5.35;;;1.00;99.90;;;;;;4805348;29;20059;-78
2022/11/06 03:25:46;;;;;;;7.43;5.43;;;1.00;99.90;;;;;;4805349;29;20146;-78
2022/11/06 03:28:22;;;;;;;8.30;5.50;;;1.00;99.90;;;;;;4803389;29;21158;-79
2022/11/06 03:30:53;;;;;;;8.13;5.35;;;1.00;99.90;;;;;;4805207;29;20057;-78
2022/11/06 03:33:24;;;;;;;6.95;4.95;;;1.00;99.90;;;;;;4803599;29;20572;-79
2022/11/06 03:35:57;;;;;;;8.77;5.32;;;1.00;99.90;;;;;;4804419;29;20082;-79
2022/11/06 03:38:27;;;;;;;7.40;4.80;;;1.00;99.90;;;;;;4800729;29;20158;-78
2022/11/06 03:41:01;;;;;;;7.75;4.88;;;1.00;99.90;;;;;;4800049;29;20051;-79
2022/11/06 03:43:35;;;;;;;10.30;5.90;;;1.00;99.90;;;;;;4787028;29;20069;-78
2022/11/06 03:46:06;;;;;;;12.30;5.72;;;1.00;99.90;;;;;;4798385;29;20757;-79
2022/11/06 03:48:37;;;;;;;10.30;5.68;;;1.00;99.90;;;;;;4802920;29;20054;-78
2022/11/06 03:51:07;;;;;;;10.60;6.40;;;1.00;99.90;;;;;;4803185;29;20065;-79
2022/11/06 03:53:40;;;;;;;9.88;5.85;;;1.00;99.90;;;;;;4803996;29;20440;-80
2022/11/06 03:56:10;;;;;;;;;;;1.00;99.90;;;;;;4802188;29;20167;-81
2022/11/06 03:58:40;;;;;;;10.20;6.20;;;1.00;99.90;;;;;;4800909;29;19929;-80
2022/11/06 04:01:12;;;;;;;9.70;5.82;;;0.90;99.90;;;;;;4787791;29;20158;-81
2022/11/06 04:03:45;;;;;;;15.68;6.70;;;0.90;99.90;;;;;;4802671;29;20149;-80
2022/11/06 04:06:17;;;;;;;9.38;6.20;;;0.90;99.90;;;;;;4802445;29;20150;-79
2022/11/06 04:14:26;;;;;;;13.43;7.13;;;0.90;99.90;;;;;;4786589;29;20054;-79
2022/11/06 04:16:56;;;;;;;17.35;7.43;;;0.90;99.90;;;;;;4804376;29;20121;-79
2022/11/06 04:19:23;;;;;;;10.80;7.30;;;0.90;99.90;;;;;;4804560;29;20468;-79
2022/11/06 04:22:17;;;;;;;13.65;7.18;;;0.90;99.90;;;;;;4802705;29;20485;-79
2022/11/06 04:27:51;;;;;;;12.65;7.00;;;0.90;99.90;;;;;;4804503;29;19929;-79
2022/11/06 04:30:20;;;;;;;15.65;7.35;;;0.90;99.90;;;;;;4804859;29;20134;-80
2022/11/06 04:33:00;;;;;;;16.92;7.68;;;0.90;99.90;;;;;;4787406;29;20482;-80
2022/11/06 04:35:34;;;;;;;10.40;6.47;;;0.80;99.90;;;;;;4803258;29;20145;-80
2022/11/06 04:38:08;;;;;;;14.20;7.00;;;0.80;99.90;;;;;;4788000;29;20158;-80
2022/11/06 04:40:47;;;;;;;11.82;6.65;;;0.80;99.90;;;;;;4802042;29;20050;-80
2022/11/06 04:43:21;;;;;;;15.10;7.70;;;0.90;99.90;;;;;;4804210;29;20493;-80
2022/11/06 04:45:53;;;;;;;18.48;7.57;;;0.90;99.90;;;;;;4804788;29;20071;-80
2022/11/06 04:48:22;;;;;;;17.88;8.65;;;0.80;99.90;;;;;;4786579;29;20517;-80
2022/11/06 04:50:54;;;;;;;19.38;7.95;;;0.80;99.90;;;;;;4801165;29;20054;-79
2022/11/06 04:53:22;;;;;;;18.08;8.60;;;0.80;99.90;;;;;;4802081;29;20394;-80
2022/11/06 04:55:53;;;;;;;13.32;7.55;;;0.80;99.90;;;;;;4803060;29;20047;-81
2022/11/06 04:58:20;;;;;;;20.42;8.68;;;0.90;99.90;;;;;;4801246;29;20061;-80
2022/11/06 05:00:50;;;;;;;14.48;7.63;;;0.80;99.90;;;;;;4801874;29;20053;-80
2022/11/06 05:03:18;;;;;;;15.80;8.45;;;0.80;99.90;;;;;;4803320;29;20150;-80
2022/11/06 05:05:46;;;;;;;16.35;9.05;;;0.90;99.90;;;;;;4805759;29;20135;-80
2022/11/06 05:08:14;;;;;;;17.55;8.95;;;0.90;99.90;;;;;;4805309;29;20050;-80
2022/11/06 05:10:42;;;;;;;15.38;8.60;;;0.90;99.90;;;;;;4807606;29;20058;-80
2022/11/06 05:13:10;;;;;;;18.13;8.10;;;0.90;99.90;;;;;;4807776;29;20054;-80
2022/11/06 05:15:37;;;;;;;18.20;8.55;;;0.90;99.90;;;;;;4806920;29;20481;-80
2022/11/06 05:18:06;;;;;;;17.85;9.25;;;1.00;99.90;;;;;;4804407;29;20451;-80
2022/11/06 05:20:34;;;;;;;18.30;9.07;;;1.00;99.90;;;;;;4805629;29;20047;-80
2022/11/06 05:23:00;;;;;;;19.80;9.32;;;1.00;99.90;;;;;;4806988;29;20058;-80
2022/11/06 05:25:30;;;;;;;15.35;7.70;;;1.00;99.90;;;;;;4805337;29;20050;-79
2022/11/06 05:27:57;;;;;;;20.73;9.00;;;1.00;99.90;;;;;;4803928;29;20137;-80
2022/11/06 05:30:25;;;;;;;17.15;8.45;;;1.00;99.90;;;;;;4807928;29;20055;-82
2022/11/06 05:32:52;;;;;;;24.15;9.40;;;1.00;99.90;;;;;;4806320;29;20461;-79
2022/11/06 05:35:21;;;;;;;19.48;9.85;;;1.00;99.90;;;;;;4804410;29;20054;-79
2022/11/06 05:37:48;;;;;;;20.45;9.57;;;1.00;99.90;;;;;;4804323;29;20154;-79
2022/11/06 05:40:16;;;;;;;19.80;9.15;;;1.00;99.90;;;;;;4801060;29;20047;-78
2022/11/06 05:42:44;;;;;;;19.73;8.38;;;1.00;99.90;;;;;;4799411;29;20528;-80
2022/11/06 05:45:11;;;;;;;22.17;9.95;;;1.00;99.90;;;;;;4804564;29;20581;-79
2022/11/06 05:47:40;;;;;;;26.05;10.25;;;1.00;99.90;;;;;;4789742;29;20047;-80
2022/11/06 05:50:08;;;;;;;24.88;10.35;;;1.00;99.90;;;;;;4807593;29;20059;-80
2022/11/06 05:52:37;;;;;;;19.15;9.35;;;1.00;99.90;;;;;;4808903;29;20050;-81
2022/11/06 05:55:06;;;;;;;17.25;8.32;;;1.00;99.90;;;;;;4806736;29;20050;-77
2022/11/06 05:57:33;;;;;;;18.48;9.40;;;1.00;99.90;;;;;;4819794;29;20146;-77
2022/11/06 06:00:00;;;;;;;20.50;7.75;;;1.00;99.90;;;;;;4806218;29;20065;-78
2022/11/06 06:02:27;;;;;;;20.88;9.30;;;1.00;99.90;;;;;;4804497;29;20054;-78
2022/11/06 06:04:54;;;;;;;23.38;10.13;;;1.00;99.90;;;;;;4807104;29;20489;-78
2022/11/06 06:07:22;;;;;;;22.13;9.60;;;1.00;99.90;;;;;;4804083;29;20062;-78
2022/11/06 06:09:50;;;;;;;23.33;9.73;;;1.00;99.90;;;;;;4799171;29;20461;-79
2022/11/06 06:12:17;;;;;;;19.48;10.02;;;1.00;99.90;;;;;;4801189;29;20566;-76
2022/11/06 06:14:44;;;;;;;23.38;9.13;;;1.00;99.90;;;;;;4802695;29;20039;-76
2022/11/06 06:17:12;;;;;;;21.25;10.45;;;0.90;99.90;;;;;;4807245;29;20539;-78
2022/11/06 06:19:39;;;;;;;23.58;10.43;;;0.90;99.90;;;;;;4819268;29;20046;-78
2022/11/06 06:22:07;;;;;;;21.77;9.85;;;0.90;99.90;;;;;;4813755;29;20054;-79
2022/11/06 06:24:35;;;;;;;22.35;10.10;;;1.00;99.90;;;;;;4799721;29;20047;-80
2022/11/06 06:27:04;;;;;;;23.02;9.77;;;1.00;99.90;;;;;;4807508;29;20089;-81
2022/11/06 06:29:31;;;;;;;19.50;9.07;;;1.00;99.90;;;;;;4806544;29;20069;-76
2022/11/06 06:31:58;;;;;;;20.00;9.95;;;1.00;99.90;;;;;;4796087;29;20637;-80
2022/11/06 06:34:25;;;;;;;20.27;10.63;;;1.00;99.90;;;;;;4811360;29;20062;-78
2022/11/06 06:36:57;;;;;;;24.90;9.63;;;1.00;99.90;;;;;;4814747;29;20604;-79
2022/11/06 06:39:37;;;;;;;16.95;9.00;;;1.00;99.90;;;;;;4811449;29;20486;-83
2022/11/06 06:42:07;;;;;;;18.95;9.32;;;1.10;99.90;;;;;;4812972;29;20055;-80
2022/11/06 06:44:36;;;;;;;19.05;9.68;;;1.10;99.90;;;;;;4806783;29;20138;-78
2022/11/06 06:47:06;;;;;;;20.08;10.57;;;1.10;99.90;;;;;;4805265;29;20153;-81
2022/11/06 06:49:34;;;;;;;20.77;9.73;;;1.10;99.90;;;;;;4807335;29;20062;-81
2022/11/06 06:52:03;;;;;;;25.38;8.95;;;1.10;99.90;;;;;;4808773;29;20131;-80
2022/11/06 06:54:30;;;;;;;20.77;9.60;;;1.20;99.90;;;;;;4804970;29;20059;-77
2022/11/06 06:56:58;;;;;;;24.05;9.93;;;1.10;99.90;;;;;;4804843;29;20065;-78
2022/11/06 06:59:28;;;;;;;17.30;8.43;;;1.00;99.90;;;;;;4805175;29;20401;-76
2022/11/06 07:01:56;;;;;;;20.10;8.82;;;1.00;99.90;;;;;;4788631;29;20149;-78
2022/11/06 07:04:24;;;;;;;19.85;10.15;;;1.10;99.90;;;;;;4804559;29;20094;-77
2022/11/06 07:06:54;;;;;;;17.85;8.38;;;1.10;99.90;;;;;;4805109;29;20467;-75
2022/11/06 07:09:21;;;;;;;20.42;8.88;;;1.10;99.90;;;;;;4797729;29;20730;-75
2022/11/06 07:11:48;;;;;;;17.40;9.25;;;1.10;99.90;;;;;;4802868;29;20054;-77
2022/11/06 07:14:15;;;;;;;18.80;9.77;;;1.10;99.90;;;;;;4816637;29;20112;-76
2022/11/06 07:16:44;;;;;;;18.83;8.73;;;1.10;99.90;;;;;;4799356;29;20396;-76
2022/11/06 07:19:11;;;;;;;20.10;10.82;;;1.10;99.90;;;;;;4800341;29;20556;-77
2022/11/06 07:21:39;;;;;;;18.17;8.98;;;1.10;99.90;;;;;;4802048;29;20055;-77
2022/11/06 07:24:06;;;;;;;17.92;9.48;;;1.20;99.90;;;;;;4800373;29;20137;-76
2022/11/06 07:26:34;;;;;;;22.88;9.65;;;1.20;99.90;;;;;;4800246;29;20449;-81
2022/11/06 07:29:01;;;;;;;17.25;8.75;;;1.20;99.90;;;;;;4802154;29;20511;-79
2022/11/06 07:31:31;;;;;;;13.68;7.00;;;1.30;99.90;;;;;;4799975;29;20512;-80
2022/11/06 07:34:03;;;;;;;;;;;1.30;99.90;;;;;;4797989;29;20070;-77
2022/11/06 07:36:31;;;;;;;25.20;7.75;;;1.20;99.90;;;;;;4798051;29;19941;-81
2022/11/06 07:38:59;;;;;;;17.70;8.02;;;1.20;99.90;;;;;;4818922;29;20047;-80
2022/11/06 07:41:27;;;;;;;14.77;8.68;;;1.20;99.90;;;;;;4798303;29;20543;-81
2022/11/06 07:43:54;;;;;;;17.13;8.10;;;1.20;99.90;;;;;;4800050;29;20146;-76
2022/11/06 07:46:21;;;;;;;12.27;6.93;;;1.20;99.90;;;;;;4802340;29;20145;-78
2022/11/06 07:48:48;;;;;;;14.82;7.95;;;1.20;99.90;;;;;;4801316;29;20062;-77
2022/11/06 07:51:17;;;;;;;17.48;8.63;;;1.20;99.90;;;;;;4802349;29;20054;-76
2022/11/06 07:53:44;;;;;;;14.38;8.15;;;1.20;99.90;;;;;;4800478;29;20508;-75
2022/11/06 07:56:12;;;;;;;16.23;8.43;;;1.20;99.90;;;;;;4799545;29;20050;-80
2022/11/06 07:58:39;;;;;;;13.27;8.05;;;1.20;99.90;;;;;;4792978;29;20119;-82
2022/11/06 08:01:13;;;;;;;16.15;7.90;;;1.20;99.90;;;;;;4803675;29;20508;-80
2022/11/06 08:03:40;;;;;;;12.13;6.97;;;1.20;99.90;;;;;;4801173;29;20566;-81
2022/11/06 08:06:08;;;;;;;15.45;8.18;;;1.20;99.90;;;;;;4804185;29;20328;-80
2022/11/06 08:08:37;;;;;;;15.70;6.72;;;1.30;99.90;;;;;;4793891;29;20154;-76
2022/11/06 08:11:04;;;;;;;13.48;7.47;;;1.30;99.90;;;;;;4800553;29;20047;-75
2022/11/06 08:13:34;;;;;;;10.48;6.63;;;1.30;99.90;;;;;;4803902;29;20065;-76
2022/11/06 08:16:05;;;;;;;12.93;6.78;;;1.30;99.90;;;;;;4817659;29;20066;-75
2022/11/06 08:18:32;;;;;;;16.23;7.00;;;1.30;99.90;;;;;;4803051;29;20083;-77
2022/11/06 08:21:00;;;;;;;14.95;7.63;;;1.40;99.90;;;;;;4800856;29;20459;-77
2022/11/06 08:23:27;;;;;;;11.50;7.03;;;1.40;99.90;;;;;;4788076;29;20063;-76
2022/11/06 08:25:57;;;;;;;12.35;7.30;;;1.40;99.90;;;;;;4804083;29;20054;-77
2022/11/06 08:28:26;;;;;;;12.82;7.05;;;1.40;99.90;;;;;;4804021;29;20063;-76
2022/11/06 08:30:54;;;;;;;9.50;7.15;;;1.50;99.90;;;;;;4803952;29;20050;-81
2022/11/06 08:33:23;;;;;;;13.10;6.57;;;1.50;99.90;;;;;;4803410;29;20073;-78
2022/11/06 08:35:50;;;;;;;10.70;5.72;;;1.60;99.90;;;;;;4802063;29;20161;-79
2022/11/06 08:38:18;;;;;;;12.88;6.47;;;1.60;99.90;;;;;;4802227;29;20051;-78
2022/11/06 08:40:45;;;;;;;14.13;6.40;;;1.60;99.90;;;;;;4798480;29;20150;-78
2022/11/06 08:43:15;;;;;;;14.85;7.30;;;1.60;99.90;;;;;;4801300;29;20051;-80
2022/11/06 08:45:44;;;;;;;11.05;6.63;;;1.70;99.90;;;;;;4804135;29;20489;-79
2022/11/06 08:48:12;;;;;;;10.25;5.53;;;1.60;99.90;;;;;;4802939;29;20588;-79
2022/11/06 08:50:42;;;;;;;10.00;6.47;;;1.60;99.90;;;;;;4801614;29;20055;-78
2022/11/06 08:53:15;;;;;;;9.38;5.82;;;1.70;99.90;;;;;;4800617;29;20054;-80
2022/11/06 08:55:43;;;;;;;12.05;6.60;;;1.70;99.90;;;;;;4802524;29;20050;-78
2022/11/06 08:58:10;;;;;;;9.40;5.93;;;1.60;99.90;;;;;;4796901;29;20145;-76
2022/11/06 09:00:39;;;;;;;12.55;6.22;;;1.70;99.90;;;;;;4798534;29;20054;-77
2022/11/06 09:03:12;;;;;;;12.40;6.63;;;1.70;99.90;;;;;;4801027;29;20051;-75
2022/11/06 09:05:41;;;;;;;11.00;5.95;;;1.80;99.90;;;;;;4800290;29;20051;-77
2022/11/06 09:08:08;;;;;;;14.23;6.68;;;1.80;99.90;;;;;;4799391;29;20142;-76
2022/11/06 09:10:37;;;;;;;8.27;5.20;;;1.70;99.90;;;;;;4799228;29;20126;-77
2022/11/06 09:13:04;;;;;;;9.88;6.10;;;1.80;99.90;;;;;;4820371;29;20244;-77
2022/11/06 09:15:31;;;;;;;12.13;6.30;;;1.80;99.90;;;;;;4806744;29;20062;-76
2022/11/06 09:18:00;;;;;;;16.73;5.63;;;1.70;99.90;;;;;;4818505;29;20532;-75
2022/11/06 09:20:28;;;;;;;7.18;4.80;;;1.80;99.90;;;;;;4815568;29;20147;-75
2022/11/06 09:22:59;;;;;;;11.32;6.18;;;1.80;99.90;;;;;;4819349;29;20134;-76
2022/11/06 09:25:28;;;;;;;8.70;5.60;;;1.80;99.90;;;;;;4816535;29;20062;-74
2022/11/06 09:27:55;;;;;;;8.05;4.13;;;1.70;99.90;;;;;;4814077;29;20056;-75
2022/11/06 09:30:23;;;;;;;7.57;4.82;;;1.80;99.90;;;;;;4799098;29;20054;-75
2022/11/06 09:32:54;;;;;;;8.73;5.03;;;1.80;99.90;;;;;;4817429;29;20089;-76
2022/11/06 09:35:24;;;;;;;10.93;5.05;;;1.70;99.90;;;;;;4814427;29;21389;-76
2022/11/06 09:37:51;;;;;;;5.25;3.92;;;1.80;99.90;;;;;;4815920;29;20116;-75
2022/11/06 09:40:21;;;;;;;8.63;4.70;;;1.80;99.90;;;;;;4815447;29;20528;-80
2022/11/06 09:43:08;;;;;;;8.18;4.85;;;1.80;99.90;;;;;;4814815;29;20054;-75
2022/11/06 09:45:39;;;;;;;6.43;4.38;;;1.80;99.90;;;;;;4821602;29;20054;-76
2022/11/06 09:48:19;;;;;;;7.93;4.25;;;1.90;99.90;;;;;;4823357;29;20767;-75
2022/11/06 09:50:53;;;;;;;12.48;4.25;;;1.90;99.90;;;;;;4829595;29;20050;-77
2022/11/06 09:53:28;;;;;;;6.60;4.50;;;1.90;99.90;;;;;;4830691;29;20085;-75
2022/11/06 09:55:59;;;;;;;6.68;4.15;;;1.90;99.90;;;;;;4821467;29;20131;-75
2022/11/06 09:58:31;;;;;;;7.47;4.53;;;2.00;99.90;;;;;;4819072;29;20114;-74
2022/11/06 10:01:06;;;;;;;6.40;4.30;;;2.00;99.90;;;;;;4821196;29;20054;-74
2022/11/06 10:03:41;;;;;;;8.60;5.28;;;2.00;99.90;;;;;;4822141;29;20061;-74
2022/11/06 10:06:10;;;;;;;5.22;3.92;;;2.00;99.90;;;;;;4821298;29;20060;-74
2022/11/06 10:08:38;;;;;;;7.63;4.15;;;2.00;99.90;;;;;;4819392;29;20050;-76
2022/11/06 10:11:17;;;;;;;9.07;3.83;;;2.00;99.90;;;;;;4820088;29;20111;-75
2022/11/06 10:13:54;;;;;;;6.53;4.00;;;2.00;99.90;;;;;;4823323;29;20171;-73
2022/11/06 10:16:32;;;;;;;8.05;5.03;;;2.10;99.90;;;;;;4815290;29;20062;-74
2022/11/06 10:19:10;;;;;;;7.65;3.67;;;2.10;99.90;;;;;;4823406;29;20111;-74
2022/11/06 10:21:48;;;;;;;4.93;3.55;;;2.10;99.90;;;;;;4827582;29;20057;-76
2022/11/06 10:24:23;;;;;;;7.07;3.50;;;2.10;99.90;;;;;;4820897;29;20065;-73
2022/11/06 10:26:58;;;;;;;5.20;3.45;;;2.10;99.90;;;;;;4819598;29;20071;-75
2022/11/06 10:29:43;;;;;;;5.10;3.92;;;2.10;99.90;;;;;;4819274;29;20057;-76
2022/11/06 10:32:49;;;;;;;4.10;3.35;;;2.10;99.90;;;;;;4821215;29;20055;-76
2022/11/06 10:35:20;;;;;;;5.15;3.80;;;2.20;99.90;;;;;;4811842;29;20108;-75
2022/11/06 10:37:54;;;;;;;4.80;3.50;;;2.20;99.90;;;;;;4815195;29;20807;-77
2022/11/06 10:40:26;;;;;;;5.35;3.47;;;2.20;99.90;;;;;;4816893;29;20436;-76
2022/11/06 10:43:01;;;;;;;7.32;3.92;;;2.30;99.90;;;;;;4822550;29;20058;-78
2022/11/06 10:45:29;;;;;;;5.75;3.38;;;2.30;99.90;;;;;;4825563;29;20519;-76
2022/11/06 10:48:05;;;;;;;6.65;3.55;;;2.30;99.90;;;;;;4813274;29;20404;-76
2022/11/06 10:50:42;;;;;;;6.05;3.92;;;2.30;99.90;;;;;;4814500;29;20059;-76
2022/11/06 10:53:21;;;;;;;5.53;3.55;;;2.30;99.90;;;;;;4816950;29;20050;-75
2022/11/06 10:56:07;;;;;;;5.47;3.38;;;2.30;99.90;;;;;;4815974;29;20115;-75
2022/11/06 10:58:35;;;;;;;4.22;2.95;;;2.30;99.90;;;;;;4838017;29;20050;-77
2022/11/06 11:01:08;;;;;;;4.47;3.33;;;2.30;99.90;;;;;;4821176;29;20060;-74
2022/11/06 11:03:40;;;;;;;5.82;3.25;;;2.40;99.90;;;;;;4821568;29;20480;-75
2022/11/06 11:06:10;;;;;;;3.75;3.00;;;2.40;99.90;;;;;;4822252;29;20050;-77
2022/11/06 11:08:41;;;;;;;11.40;3.20;;;2.40;99.90;;;;;;4820172;29;20551;-78
2022/11/06 11:11:24;;;;;;;4.90;3.13;;;2.40;99.90;;;;;;4826720;29;20050;-75
2022/11/06 11:14:13;;;;;;;6.82;3.60;;;2.40;99.90;;;;;;4829517;29;20523;-76
2022/11/06 11:16:43;;;;;;;3.63;3.03;;;2.50;99.90;;;;;;4816097;29;20508;-75
2022/11/06 11:19:33;;;;;;;4.38;2.88;;;2.40;99.90;;;;;;4819865;29;20137;-76
2022/11/06 11:22:02;;;;;;;5.85;3.60;;;2.40;99.90;;;;;;4817474;29;20046;-76
2022/11/06 11:24:32;;;;;;;3.97;3.08;;;2.40;99.90;;;;;;4820315;29;20051;-75
2022/11/06 11:27:01;;;;;;;5.40;3.22;;;2.40;99.90;;;;;;4827334;29;20517;-75
2022/11/06 11:29:31;;;;;;;3.97;3.13;;;2.40;99.90;;;;;;4809429;29;20679;-76
2022/11/06 11:32:01;;;;;;;4.53;3.15;;;2.50;99.90;;;;;;4817191;29;20050;-74
2022/11/06 11:34:32;;;;;;;3.00;2.58;;;2.50;99.90;;;;;;4812852;29;20054;-74
2022/11/06 11:37:01;;;;;;;3.58;3.10;;;2.50;99.90;;;;;;4824663;29;20401;-73
2022/11/06 11:39:33;;;;;;;3.05;2.60;;;2.50;99.90;;;;;;4827149;29;20046;-76
2022/11/06 11:42:25;;;;;;;4.45;3.10;;;2.50;99.90;;;;;;4825183;29;20073;-75
2022/11/06 11:45:14;;;;;;;7.40;3.58;;;2.50;99.90;;;;;;4815810;29;20050;-76
2022/11/06 11:47:44;;;;;;;3.58;3.17;;;2.50;99.90;;;;;;4817526;29;20275;-76
2022/11/06 11:50:34;;;;;;;3.47;3.17;;;2.50;99.90;;;;;;4813728;29;20050;-77
2022/11/06 11:53:07;;;;;;;4.85;2.47;;;2.60;99.90;;;;;;4819416;29;20054;-75
2022/11/06 11:55:40;;;;;;;3.08;2.78;;;2.50;99.90;;;;;;4835891;29;20835;-76
2022/11/06 11:58:19;;;;;;;4.60;3.17;;;2.50;99.90;;;;;;4818858;29;20110;-73
2022/11/06 12:00:55;;;;;;;4.28;3.25;;;2.50;99.90;;;;;;4821255;29;20106;-76
2022/11/06 12:03:26;;;;;;;3.25;2.85;;;2.50;99.90;;;;;;4821897;29;20050;-76
2022/11/06 12:06:03;;;;;;;3.65;2.70;;;2.40;99.90;;;;;;4817233;29;20471;-76
2022/11/06 12:08:31;;;;;;;4.55;2.78;;;2.40;99.90;;;;;;4822649;29;20072;-75
2022/11/06 12:11:15;;;;;;;4.38;2.97;;;2.40;99.90;;;;;;4829424;29;20072;-76
2022/11/06 12:13:42;;;;;;;3.65;3.15;;;2.50;99.90;;;;;;4819275;29;20050;-79
2022/11/06 12:16:16;;;;;;;7.03;3.15;;;2.50;99.90;;;;;;4830590;29;20451;-76
2022/11/06 12:18:48;;;;;;;4.22;2.65;;;2.50;99.90;;;;;;4822109;29;20524;-76
2022/11/06 12:21:23;;;;;;;3.85;2.83;;;2.50;99.90;;;;;;4825591;29;20053;-75
2022/11/06 12:23:56;;;;;;;3.03;2.70;;;2.50;99.90;;;;;;4816595;29;20050;-76
2022/11/06 12:26:32;;;;;;;4.68;3.10;;;2.60;99.90;;;;;;4811506;29;20126;-76
2022/11/06 12:29:05;;;;;;;5.47;2.97;;;2.50;99.90;;;;;;4816836;29;20046;-76
2022/11/06 12:31:39;;;;;;;6.78;3.05;;;2.60;99.90;;;;;;4820889;29;20145;-74
2022/11/06 12:34:12;;;;;;;4.03;3.20;;;2.50;99.90;;;;;;4811651;29;20046;-74
2022/11/06 12:36:46;;;;;;;5.57;3.13;;;2.50;99.90;;;;;;4824110;29;20439;-76
2022/11/06 12:39:19;;;;;;;3.60;2.90;;;2.50;99.90;;;;;;4823695;29;20065;-77
2022/11/06 12:41:50;;;;;;;4.20;3.15;;;2.50;99.90;;;;;;4814336;29;20047;-74
2022/11/06 12:44:18;;;;;;;4.57;3.08;;;2.50;99.90;;;;;;4823660;29;20120;-75
2022/11/06 12:46:55;;;;;;;5.55;3.30;;;2.50;99.90;;;;;;4821206;29;20060;-77
2022/11/06 12:49:53;;;;;;;4.10;3.17;;;2.50;99.90;;;;;;4812620;29;20527;-76
2022/11/06 12:52:30;;;;;;;5.63;3.15;;;2.50;99.90;;;;;;4815973;29;20515;-76
2022/11/06 12:55:16;;;;;;;4.03;2.70;;;2.50;99.90;;;;;;4817236;29;20073;-73
2022/11/06 12:57:58;;;;;;;3.88;2.88;;;2.60;99.90;;;;;;4815937;29;20070;-73
2022/11/06 13:00:33;;;;;;;4.65;3.40;;;2.60;99.90;;;;;;4802042;29;20137;-74
2022/11/06 13:03:23;;;;;;;3.47;3.00;;;2.60;99.90;;;;;;4815455;29;20058;-75
2022/11/06 13:05:56;;;;;;;5.28;3.30;;;2.60;99.90;;;;;;4815114;29;20058;-76
2022/11/06 13:08:34;;;;;;;3.72;3.35;;;2.60;99.90;;;;;;4820741;29;20050;-77
2022/11/06 13:11:18;;;;;;;5.05;2.85;;;2.60;99.90;;;;;;4825881;29;20077;-76
2022/11/06 13:14:03;;;;;;;5.32;3.63;;;2.60;99.90;;;;;;4816052;29;20491;-76
2022/11/06 13:16:38;;;;;;;3.40;3.10;;;2.60;99.90;;;;;;4816584;29;20062;-77
2022/11/06 13:19:14;;;;;;;4.15;3.33;;;2.60;99.90;;;;;;4816378;29;20075;-80
2022/11/06 13:22:07;;;;;;;4.95;2.90;;;2.70;99.90;;;;;;4816496;29;20053;-75
2022/11/06 13:24:40;;;;;;;4.30;3.60;;;2.70;99.90;;;;;;4816557;29;20047;-76
2022/11/06 13:27:15;;;;;;;3.67;3.25;;;2.70;99.90;;;;;;4820024;29;20153;-79